createdAt,value
2022-11-02T00:00:31.716Z,14.53
2022-11-02T00:03:23.294Z,14.46
2022-11-02T00:05:54.920Z,14.45
2022-11-02T00:08:26.570Z,14.42
2022-11-02T00:10:58.184Z,14.38
2022-11-02T00:13:30.029Z,14.38
2022-11-02T00:16:04.186Z,14.33
2022-11-02T00:18:37.966Z,14.29
2022-11-02T00:21:09.832Z,14.18
2022-11-02T00:23:43.015Z,14.16
2022-11-02T00:26:15.657Z,14.12
2022-11-02T00:28:47.582Z,14.05
2022-11-02T00:31:19.233Z,13.90
2022-11-02T00:33:50.901Z,13.91
2022-11-02T00:36:24.785Z,13.96
2022-11-02T00:38:56.760Z,13.94
2022-11-02T00:41:28.851Z,13.90
2022-11-02T00:44:00.584Z,13.93
2022-11-02T00:46:32.234Z,13.89
2022-11-02T00:49:03.950Z,13.85
2022-11-02T00:51:37.409Z,13.83
2022-11-02T00:54:09.102Z,13.84
2022-11-02T00:56:40.860Z,13.73
2022-11-02T00:59:12.546Z,13.76
2022-11-02T01:01:47.708Z,13.73
2022-11-02T01:04:19.806Z,13.75
2022-11-02T01:06:51.532Z,13.71
2022-11-02T01:09:23.157Z,13.70
2022-11-02T01:11:55.664Z,13.63
2022-11-02T01:14:27.445Z,13.61
2022-11-02T01:16:59.102Z,13.54
2022-11-02T01:19:30.859Z,13.49
2022-11-02T01:22:02.658Z,13.41
2022-11-02T01:24:34.354Z,13.40
2022-11-02T01:27:07.713Z,13.35
2022-11-02T01:29:39.361Z,13.37
2022-11-02T01:32:11.076Z,13.35
2022-11-02T01:34:42.936Z,13.28
2022-11-02T01:37:14.589Z,13.25
2022-11-02T01:39:46.320Z,13.24
2022-11-02T01:42:23.018Z,13.18
2022-11-02T01:44:55.060Z,13.18
2022-11-02T01:47:29.535Z,13.15
2022-11-02T01:50:07.201Z,13.01
2022-11-02T01:52:41.937Z,12.93
2022-11-02T01:55:19.370Z,12.89
2022-11-02T01:57:56.944Z,12.83
2022-11-02T02:00:28.758Z,12.78
2022-11-02T02:03:06.643Z,12.73
2022-11-02T02:05:43.773Z,12.74
2022-11-02T02:08:20.442Z,12.61
2022-11-02T02:10:52.654Z,12.60
2022-11-02T02:13:25.398Z,12.60
2022-11-02T02:16:04.705Z,12.68
2022-11-02T02:18:42.632Z,12.67
2022-11-02T02:21:35.634Z,12.67
2022-11-02T02:24:39.329Z,12.67
2022-11-02T02:27:16.693Z,12.67
2022-11-02T02:29:55.953Z,12.53
2022-11-02T02:32:34.285Z,12.36
2022-11-02T02:35:20.301Z,12.33
2022-11-02T02:37:59.144Z,12.21
2022-11-02T02:40:36.265Z,12.24
2022-11-02T02:43:13.620Z,12.26
2022-11-02T02:45:53.137Z,12.22
2022-11-02T02:48:27.185Z,12.22
2022-11-02T02:51:09.431Z,12.34
2022-11-02T02:53:46.155Z,12.40
2022-11-02T02:56:22.649Z,12.42
2022-11-02T02:58:58.812Z,12.34
2022-11-02T03:01:32.310Z,12.39
2022-11-02T03:04:04.160Z,12.22
2022-11-02T03:06:37.834Z,12.22
2022-11-02T03:09:20.477Z,12.34
2022-11-02T03:12:01.790Z,12.18
2022-11-02T03:14:52.981Z,12.17
2022-11-02T03:17:33.648Z,12.06
2022-11-02T03:20:20.280Z,12.05
2022-11-02T03:23:00.875Z,12.12
2022-11-02T03:25:40.814Z,12.18
2022-11-02T03:28:17.529Z,12.21
2022-11-02T03:30:57.725Z,12.19
2022-11-02T03:33:36.778Z,12.18
2022-11-02T03:36:14.095Z,12.09
2022-11-02T03:38:50.832Z,12.10
2022-11-02T03:41:25.142Z,12.11
2022-11-02T03:44:03.829Z,12.12
2022-11-02T03:46:39.840Z,12.15
2022-11-02T03:49:19.311Z,12.18
2022-11-02T03:51:53.144Z,12.19
2022-11-02T03:54:35.638Z,12.10
2022-11-02T03:57:11.439Z,12.07
2022-11-02T03:59:45.166Z,12.11
2022-11-02T04:02:19.689Z,12.05
2022-11-02T04:04:54.711Z,12.08
2022-11-02T04:07:58.379Z,12.00
2022-11-02T04:10:31.418Z,11.86
2022-11-02T04:13:21.262Z,11.91
2022-11-02T04:15:54.128Z,11.83
2022-11-02T04:18:43.461Z,11.60
2022-11-02T04:21:15.269Z,11.63
2022-11-02T04:24:04.670Z,11.71
2022-11-02T04:26:36.337Z,11.75
2022-11-02T04:29:08.108Z,11.86
2022-11-02T04:31:39.953Z,11.71
2022-11-02T04:34:12.247Z,11.65
2022-11-02T04:36:44.522Z,11.57
2022-11-02T04:39:16.460Z,11.70
2022-11-02T04:41:48.258Z,11.67
2022-11-02T04:44:45.841Z,11.57
2022-11-02T04:47:23.446Z,11.48
2022-11-02T04:49:55.457Z,11.50
2022-11-02T04:52:26.742Z,11.56
2022-11-02T04:54:58.715Z,11.59
2022-11-02T04:57:30.748Z,11.67
2022-11-02T05:00:07.270Z,11.74
2022-11-02T05:02:39.161Z,11.77
2022-11-02T05:05:12.586Z,11.73
2022-11-02T05:07:45.036Z,11.75
2022-11-02T05:10:17.575Z,11.75
2022-11-02T05:12:48.752Z,11.71
2022-11-02T05:15:20.671Z,11.73
2022-11-02T05:17:52.669Z,11.65
2022-11-02T05:20:25.063Z,11.70
2022-11-02T05:22:58.218Z,11.72
2022-11-02T05:25:30.409Z,11.58
2022-11-02T05:28:02.969Z,11.66
2022-11-02T05:30:35.180Z,11.65
2022-11-02T05:33:07.506Z,11.66
2022-11-02T05:35:39.922Z,11.63
2022-11-02T05:38:12.129Z,11.66
2022-11-02T05:40:43.809Z,11.60
2022-11-02T05:43:16.633Z,11.63
2022-11-02T05:45:54.236Z,11.59
2022-11-02T05:48:27.141Z,11.66
2022-11-02T05:51:00.375Z,11.57
2022-11-02T05:53:34.286Z,11.39
2022-11-02T05:56:08.091Z,11.36
2022-11-02T05:58:40.451Z,11.18
2022-11-02T06:01:13.535Z,11.13
2022-11-02T06:03:49.139Z,11.27
2022-11-02T06:06:24.808Z,11.33
2022-11-02T06:08:57.241Z,11.35
2022-11-02T06:11:28.896Z,11.14
2022-11-02T06:14:00.611Z,11.21
2022-11-02T06:16:32.544Z,11.28
2022-11-02T06:19:04.648Z,11.36
2022-11-02T06:21:36.332Z,11.30
2022-11-02T06:24:08.918Z,11.37
2022-11-02T06:26:40.609Z,11.37
2022-11-02T06:29:12.260Z,11.43
2022-11-02T06:31:43.955Z,11.19
2022-11-02T06:34:15.625Z,11.22
2022-11-02T06:36:47.309Z,11.25
2022-11-02T06:39:18.928Z,11.08
2022-11-02T06:41:50.762Z,11.16
2022-11-02T06:44:22.443Z,11.20
2022-11-02T06:46:54.249Z,11.38
2022-11-02T06:49:27.598Z,11.40
2022-11-02T06:51:59.358Z,11.42
2022-11-02T06:54:31.029Z,11.41
2022-11-02T06:57:02.758Z,11.44
2022-11-02T06:59:34.356Z,11.44
2022-11-02T07:02:06.125Z,11.43
2022-11-02T07:04:40.382Z,11.37
2022-11-02T07:07:12.199Z,11.40
2022-11-02T07:09:43.967Z,11.22
2022-11-02T07:12:19.222Z,11.18
2022-11-02T07:14:54.744Z,11.22
2022-11-02T07:17:31.874Z,11.16
2022-11-02T07:20:05.259Z,11.24
2022-11-02T07:22:36.928Z,11.18
2022-11-02T07:25:09.611Z,11.24
2022-11-02T07:27:44.117Z,11.30
2022-11-02T07:30:16.017Z,11.39
2022-11-02T07:32:48.412Z,11.42
2022-11-02T07:35:20.217Z,11.39
2022-11-02T07:37:59.839Z,11.40
2022-11-02T07:40:33.550Z,11.32
2022-11-02T07:43:06.108Z,11.42
2022-11-02T07:45:45.491Z,11.35
2022-11-02T07:48:17.302Z,11.39
2022-11-02T07:50:49.144Z,11.47
2022-11-02T07:53:20.959Z,11.46
2022-11-02T07:55:52.861Z,11.48
2022-11-02T07:58:24.628Z,11.55
2022-11-02T08:00:59.907Z,11.56
2022-11-02T08:03:32.492Z,11.55
2022-11-02T08:06:04.872Z,11.60
2022-11-02T08:08:37.244Z,11.46
2022-11-02T08:11:09.017Z,11.35
2022-11-02T08:13:40.988Z,11.52
2022-11-02T08:16:12.696Z,11.57
2022-11-02T08:19:01.437Z,11.67
2022-11-02T08:21:33.205Z,11.59
2022-11-02T08:24:05.303Z,11.44
2022-11-02T08:26:38.743Z,11.56
2022-11-02T08:29:13.094Z,11.67
2022-11-02T08:31:45.006Z,11.65
2022-11-02T08:34:16.917Z,11.68
2022-11-02T08:36:48.983Z,11.68
2022-11-02T08:39:20.811Z,11.60
2022-11-02T08:41:52.544Z,11.65
2022-11-02T08:44:24.371Z,11.75
2022-11-02T08:47:02.176Z,11.75
2022-11-02T08:49:36.224Z,11.81
2022-11-02T08:52:08.274Z,11.91
2022-11-02T08:54:40.371Z,11.93
2022-11-02T08:57:12.373Z,11.93
2022-11-02T08:59:44.266Z,12.02
2022-11-02T09:02:16.221Z,12.12
2022-11-02T09:04:47.984Z,12.21
2022-11-02T09:07:19.740Z,12.32
2022-11-02T09:09:51.538Z,12.39
2022-11-02T09:12:23.313Z,12.39
2022-11-02T09:14:55.273Z,12.47
2022-11-02T09:17:27.039Z,12.49
2022-11-02T09:19:58.756Z,12.55
2022-11-02T09:22:30.523Z,12.67
2022-11-02T09:25:02.352Z,12.75
2022-11-02T09:27:34.353Z,12.95
2022-11-02T09:30:07.325Z,13.05
2022-11-02T09:32:39.679Z,13.07
2022-11-02T09:35:13.111Z,13.21
2022-11-02T09:37:50.925Z,13.39
2022-11-02T09:40:25.896Z,13.41
2022-11-02T09:43:08.286Z,13.62
2022-11-02T09:45:54.995Z,13.74
2022-11-02T09:48:32.507Z,13.76
2022-11-02T09:51:09.581Z,13.86
2022-11-02T09:53:48.225Z,14.09
2022-11-02T09:56:21.244Z,14.19
2022-11-02T09:58:58.313Z,14.31
2022-11-02T10:01:41.044Z,14.46
2022-11-02T10:04:34.282Z,14.58
2022-11-02T10:07:12.087Z,14.84
2022-11-02T10:09:53.998Z,14.85
2022-11-02T10:12:32.796Z,14.96
2022-11-02T10:15:12.115Z,14.95
2022-11-02T10:17:45.299Z,15.10
2022-11-02T10:20:26.046Z,15.14
2022-11-02T10:23:04.442Z,15.30
2022-11-02T10:25:38.677Z,15.36
2022-11-02T10:28:19.278Z,15.49
2022-11-02T10:30:53.763Z,15.49
2022-11-02T10:33:28.750Z,15.60
2022-11-02T10:36:20.179Z,15.65
2022-11-02T10:39:04.431Z,15.81
2022-11-02T10:41:52.325Z,15.96
2022-11-02T10:44:41.832Z,15.94
2022-11-02T10:47:18.791Z,16.12
2022-11-02T10:50:34.309Z,16.24
2022-11-02T10:53:35.375Z,16.08
2022-11-02T10:56:09.630Z,15.89
2022-11-02T10:58:46.684Z,15.92
2022-11-02T11:01:18.511Z,16.38
2022-11-02T11:04:04.278Z,16.47
2022-11-02T11:06:38.323Z,16.73
2022-11-02T11:09:19.169Z,16.91
2022-11-02T11:11:59.886Z,16.69
2022-11-02T11:20:37.256Z,16.96
2022-11-02T11:23:26.769Z,16.94
2022-11-02T11:26:03.665Z,16.93
2022-11-02T11:28:41.099Z,16.66
2022-11-02T11:31:16.701Z,16.86
2022-11-02T11:33:52.978Z,16.79
2022-11-02T11:36:30.760Z,17.03
2022-11-02T11:39:05.041Z,17.09
2022-11-02T11:41:41.604Z,17.09
2022-11-02T11:44:16.341Z,17.22
2022-11-02T11:46:51.460Z,16.94
2022-11-02T11:52:30.921Z,16.97
2022-11-02T11:55:20.754Z,17.04
2022-11-02T11:58:07.940Z,17.18
2022-11-02T12:00:40.267Z,17.10
2022-11-02T12:03:14.216Z,16.93
2022-11-02T12:06:01.476Z,16.56
2022-11-02T12:08:47.250Z,16.53
2022-11-02T12:11:35.200Z,16.48
2022-11-02T12:14:33.313Z,16.45
2022-11-02T12:17:20.599Z,16.60
2022-11-02T12:20:12.857Z,16.86
2022-11-02T12:22:55.202Z,17.12
2022-11-02T12:25:42.447Z,16.54
2022-11-02T12:28:30.126Z,16.43
2022-11-02T12:31:12.698Z,16.29
2022-11-02T12:33:57.004Z,16.54
2022-11-02T12:37:01.702Z,16.64
2022-11-02T12:39:50.139Z,16.40
2022-11-02T12:42:29.794Z,16.38
2022-11-02T12:45:18.352Z,16.10
2022-11-02T12:47:59.316Z,15.69
2022-11-02T12:50:49.069Z,15.57
2022-11-02T12:53:43.238Z,15.45
2022-11-02T12:56:21.075Z,15.41
2022-11-02T12:58:54.306Z,15.52
2022-11-02T13:01:32.188Z,15.62
2022-11-02T13:04:16.447Z,15.45
2022-11-02T13:06:52.409Z,15.43
2022-11-02T13:09:31.708Z,15.27
2022-11-02T13:12:07.273Z,15.21
2022-11-02T13:14:43.829Z,15.27
2022-11-02T13:17:21.336Z,15.37
2022-11-02T13:19:55.959Z,15.38
2022-11-02T13:22:32.141Z,15.30
2022-11-02T13:25:16.090Z,15.17
2022-11-02T13:27:53.526Z,15.37
2022-11-02T13:30:25.285Z,15.52
2022-11-02T13:33:04.104Z,15.58
2022-11-02T13:35:40.974Z,15.53
2022-11-02T13:38:26.018Z,15.40
2022-11-02T13:41:13.250Z,15.33
2022-11-02T13:44:05.328Z,15.24
2022-11-02T13:46:59.083Z,15.24
2022-11-02T13:49:35.751Z,15.28
2022-11-02T13:52:14.029Z,15.30
2022-11-02T13:54:51.917Z,15.22
2022-11-02T13:57:33.573Z,15.15
2022-11-02T14:00:09.582Z,15.20
2022-11-02T14:02:44.794Z,15.35
2022-11-02T14:05:34.134Z,15.47
2022-11-02T14:08:08.914Z,15.39
2022-11-02T14:10:42.650Z,15.33
2022-11-02T14:13:17.717Z,15.27
2022-11-02T14:15:54.827Z,15.25
2022-11-02T14:18:33.494Z,15.16
2022-11-02T14:21:32.440Z,15.16
2022-11-02T14:24:04.574Z,15.23
2022-11-02T14:26:56.834Z,15.31
2022-11-02T14:29:52.688Z,15.20
2022-11-02T14:32:36.298Z,15.07
2022-11-02T14:35:19.740Z,15.05
2022-11-02T14:38:12.766Z,14.95
2022-11-02T14:40:50.022Z,14.90
2022-11-02T14:44:03.988Z,14.86
2022-11-02T14:46:48.903Z,14.86
2022-11-02T14:49:23.941Z,14.80
2022-11-02T14:52:04.542Z,14.79
2022-11-02T14:54:47.601Z,14.79
2022-11-02T14:57:25.861Z,14.76
2022-11-02T15:00:01.097Z,14.76
2022-11-02T15:02:40.316Z,14.74
2022-11-02T15:05:27.585Z,14.72
2022-11-02T15:08:03.546Z,14.72
2022-11-02T15:10:43.421Z,14.72
2022-11-02T15:13:37.536Z,14.67
2022-11-02T15:16:25.085Z,14.61
2022-11-02T15:19:19.747Z,14.57
2022-11-02T15:21:52.098Z,14.50
2022-11-02T15:24:29.537Z,14.53
2022-11-02T15:27:03.457Z,14.45
2022-11-02T15:29:38.705Z,14.41
2022-11-02T15:32:18.223Z,14.36
2022-11-02T15:34:56.076Z,14.30
2022-11-02T15:37:37.337Z,14.32
2022-11-02T15:40:22.653Z,14.37
2022-11-02T15:43:06.221Z,14.32
2022-11-02T15:46:02.083Z,14.26
2022-11-02T15:48:44.758Z,14.29
2022-11-02T15:51:26.017Z,14.17
2022-11-02T15:54:24.728Z,14.09
2022-11-02T15:57:08.017Z,14.01
2022-11-02T16:00:08.281Z,14.08
2022-11-02T16:02:44.938Z,13.98
2022-11-02T16:05:21.705Z,13.94
2022-11-02T16:08:11.366Z,13.96
2022-11-02T16:10:43.495Z,13.95
2022-11-02T16:13:17.946Z,13.95
2022-11-02T16:15:51.032Z,13.93
2022-11-02T16:18:27.962Z,13.88
2022-11-02T16:21:02.578Z,13.92
2022-11-02T16:23:36.630Z,13.90
2022-11-02T16:26:19.819Z,13.94
2022-11-02T16:28:55.074Z,14.08
2022-11-02T16:31:31.153Z,14.14
2022-11-02T16:34:06.451Z,14.15
2022-11-02T16:36:40.188Z,14.19
2022-11-02T16:39:20.149Z,14.20
2022-11-02T16:41:57.201Z,14.21
2022-11-02T16:44:31.533Z,14.18
2022-11-02T16:47:19.010Z,14.21
2022-11-02T16:50:11.707Z,14.19
2022-11-02T16:52:43.521Z,14.17
2022-11-02T16:55:36.343Z,14.09
2022-11-02T16:58:13.619Z,14.06
2022-11-02T17:00:56.621Z,14.10
2022-11-02T17:03:34.124Z,14.10
2022-11-02T17:06:09.265Z,14.06
2022-11-02T17:08:44.260Z,14.02
2022-11-02T17:11:18.555Z,14.00
2022-11-02T17:13:54.897Z,13.96
2022-11-02T17:16:26.848Z,13.88
2022-11-02T17:18:58.621Z,13.71
2022-11-02T17:21:31.486Z,13.61
2022-11-02T17:24:23.353Z,13.73
2022-11-02T17:27:25.103Z,13.80
2022-11-02T17:29:57.726Z,13.81
2022-11-02T17:32:30.005Z,13.78
2022-11-02T17:35:02.703Z,13.66
2022-11-02T17:37:33.530Z,13.55
2022-11-02T17:40:10.962Z,13.33
2022-11-02T17:43:02.357Z,13.31
2022-11-02T17:45:37.481Z,13.23
2022-11-02T17:48:12.469Z,13.20
2022-11-02T17:50:45.847Z,13.20
2022-11-02T17:53:18.758Z,13.17
2022-11-02T17:55:51.388Z,13.20
2022-11-02T17:58:21.888Z,13.11
2022-11-02T18:00:55.514Z,12.98
2022-11-02T18:03:31.264Z,12.94
2022-11-02T18:06:10.372Z,12.91
2022-11-02T18:09:03.446Z,12.86
2022-11-02T18:11:36.670Z,12.83
2022-11-02T18:14:16.840Z,12.86
2022-11-02T18:16:51.013Z,12.85
2022-11-02T18:19:24.214Z,12.81
2022-11-02T18:21:57.268Z,12.96
2022-11-02T18:24:30.413Z,13.05
2022-11-02T18:27:02.676Z,13.06
2022-11-02T18:29:39.992Z,13.09
2022-11-02T18:32:13.108Z,13.12
2022-11-02T18:34:46.065Z,13.11
2022-11-02T18:37:19.826Z,13.10
2022-11-02T18:39:52.642Z,13.04
2022-11-02T18:42:23.395Z,13.46
2022-11-02T18:44:55.409Z,13.15
2022-11-02T18:47:30.287Z,13.08
2022-11-02T18:50:03.393Z,13.00
2022-11-02T18:52:40.366Z,12.92
2022-11-02T18:55:14.239Z,12.87
2022-11-02T18:57:51.078Z,12.85
2022-11-02T19:00:24.569Z,12.79
2022-11-02T19:02:57.684Z,12.75
2022-11-02T19:05:48.781Z,12.60
2022-11-02T19:08:55.246Z,12.53
2022-11-02T19:11:28.392Z,12.50
2022-11-02T19:14:01.078Z,12.43
2022-11-02T19:16:33.955Z,12.43
2022-11-02T19:19:07.132Z,12.40
2022-11-02T19:21:43.285Z,12.37
2022-11-02T19:24:21.100Z,12.40
2022-11-02T19:26:54.978Z,12.38
2022-11-02T19:29:27.817Z,12.40
2022-11-02T19:32:02.087Z,12.34
2022-11-02T19:34:36.938Z,12.28
2022-11-02T19:37:10.222Z,12.07
2022-11-02T19:39:43.706Z,12.12
2022-11-02T19:42:17.257Z,11.87
2022-11-02T19:44:50.868Z,11.69
2022-11-02T19:47:24.691Z,11.74
2022-11-02T19:49:58.563Z,11.76
2022-11-02T19:52:31.262Z,11.67
2022-11-02T19:55:02.570Z,11.57
2022-11-02T19:57:36.334Z,11.49
2022-11-02T20:00:16.147Z,11.56
2022-11-02T20:02:52.401Z,11.70
2022-11-02T20:05:25.855Z,11.68
2022-11-02T20:07:58.569Z,11.60
2022-11-02T20:10:30.429Z,11.67
2022-11-02T20:13:03.348Z,11.81
2022-11-02T20:15:39.584Z,11.80
2022-11-02T20:18:19.472Z,11.80
2022-11-02T20:20:53.108Z,11.76
2022-11-02T20:23:27.200Z,11.77
2022-11-02T20:26:05.380Z,11.80
2022-11-02T20:28:39.959Z,11.82
2022-11-02T20:31:13.983Z,11.82
2022-11-02T20:33:46.541Z,11.76
2022-11-02T20:36:25.218Z,11.72
2022-11-02T20:39:03.366Z,11.67
2022-11-02T20:41:39.361Z,11.69
2022-11-02T20:44:11.639Z,11.69
2022-11-02T20:46:52.771Z,11.69
2022-11-02T20:52:22.514Z,11.61
2022-11-02T20:54:55.893Z,11.59
2022-11-02T20:57:29.365Z,11.49
2022-11-02T21:00:04.303Z,11.52
2022-11-02T21:02:39.347Z,11.47
2022-11-02T21:05:16.037Z,11.42
2022-11-02T21:07:52.422Z,11.29
2022-11-02T21:10:26.112Z,11.30
2022-11-02T21:13:16.622Z,11.27
2022-11-02T21:15:50.361Z,11.30
2022-11-02T21:18:23.846Z,11.29
2022-11-02T21:20:56.302Z,11.31
2022-11-02T21:23:28.406Z,11.28
2022-11-02T21:26:21.864Z,11.20
2022-11-02T21:28:58.239Z,10.87
2022-11-02T21:31:31.172Z,10.88
2022-11-02T21:34:04.628Z,10.98
2022-11-02T21:36:41.373Z,11.04
2022-11-02T21:39:19.996Z,11.10
2022-11-02T21:41:56.887Z,11.11
2022-11-02T21:44:28.952Z,10.98
2022-11-02T21:47:02.024Z,10.72
2022-11-02T21:49:34.362Z,10.80
2022-11-02T21:52:07.377Z,10.79
2022-11-02T21:54:44.624Z,10.83
2022-11-02T21:57:17.266Z,10.72
2022-11-02T21:59:48.060Z,10.69
2022-11-02T22:02:25.830Z,10.75
2022-11-02T22:05:01.503Z,10.79
2022-11-02T22:07:57.159Z,10.73
2022-11-02T22:10:30.166Z,10.68
2022-11-02T22:13:25.861Z,10.67
2022-11-02T22:16:07.608Z,10.65
2022-11-02T22:18:40.609Z,10.60
2022-11-02T22:21:12.470Z,10.63
2022-11-02T22:23:47.142Z,10.67
2022-11-02T22:26:21.819Z,10.59
2022-11-02T22:28:57.730Z,10.64
2022-11-02T22:31:31.540Z,10.51
2022-11-02T22:34:06.434Z,10.46
2022-11-02T22:36:40.716Z,10.53
2022-11-02T22:39:15.369Z,10.56
2022-11-02T22:41:49.511Z,10.57
2022-11-02T22:44:22.385Z,10.57
2022-11-02T22:46:55.105Z,10.51
2022-11-02T22:49:27.336Z,10.54
2022-11-02T22:51:59.557Z,10.56
2022-11-02T22:54:31.763Z,10.55
2022-11-02T22:57:05.451Z,10.56
2022-11-02T22:59:39.334Z,10.50
2022-11-02T23:02:11.939Z,10.49
2022-11-02T23:04:44.898Z,10.47
2022-11-02T23:07:17.233Z,10.26
2022-11-02T23:09:49.098Z,10.33
2022-11-02T23:12:21.202Z,10.37
2022-11-02T23:14:53.090Z,10.41
2022-11-02T23:17:25.752Z,10.39
2022-11-02T23:19:56.705Z,10.40
2022-11-02T23:22:47.018Z,10.36
2022-11-02T23:25:21.389Z,10.34
2022-11-02T23:28:17.091Z,10.30
2022-11-02T23:31:07.331Z,10.28
2022-11-02T23:33:40.890Z,10.26
2022-11-02T23:36:16.377Z,10.21
2022-11-02T23:39:08.240Z,10.21
2022-11-02T23:41:41.658Z,10.17
2022-11-02T23:44:14.193Z,10.12
2022-11-02T23:46:48.649Z,10.13
2022-11-02T23:49:21.101Z,10.14
2022-11-02T23:52:10.812Z,10.10
2022-11-02T23:55:00.297Z,10.08
2022-11-02T23:57:33.199Z,9.96
